Destin, FL (32540)

5:01 AM CDT on July 24, 2016 (GMT -0500)
Destin Water Users | | Change Station

Elev 26 ft 30.39 °N, 86.48 °W | Updated 11 seconds ago

Mostly Cloudy
Mostly Cloudy
78.5 °F
Feels Like 82 °F
N
1.4
Wind Variable Wind from WNW
Gusts 0.0 mph

Today
High -- | Low -- °F
--% Chance of Precip.
Yesterday
High -- | Low -- °F
Precip. -- in
Pressure 29.97 in
Visibility 10.0 miles
Clouds Mostly Cloudy 11000 ft
Heat Index 82 °F
Dew Point 75 °F
Humidity 89%
Rainfall 0.00 in
Snow Depth Not available.
5:59 AM 7:44 PM
Waning Gibbous, 77% visible
METAR KDTS 240953Z AUTO 03004KT 10SM BKN110 27/26 A2997 RMK AO2 RAB14E50 SLP148 P0004 T02670256 TSNO $
Pressure 29.97 in
Visibility 10.0 miles
Clouds Mostly Cloudy 11000 ft
Heat Index 82 °F
Dew Point 75 °F
Humidity 89%
Rainfall 0.00 in
Snow Depth Not available.
5:59 AM 7:44 PM
Waning Gibbous, 77% visible
METAR KDTS 240953Z AUTO 03004KT 10SM BKN110 27/26 A2997 RMK AO2 RAB14E50 SLP148 P0004 T02670256 TSNO $

10-Day Weather Forecast

Almanac

Astronomy

Jul. 24, 2016 Rise Set
Actual Time
Civil Twilight
Nautical Twilight
Astronomical Twilight
Moon
Length of Visible Light
Length of Day
Tomorrow will be .
, % of the Moon is Illuminated

Today's Extremes

State Highs State Lows

Community

WunderPhotos

Upload Photos

1,927,040 photos uploaded!

WunderBlog® & News

Nearby

Air Quality

  Air Quality AQ Index Pollutant
Not available.

Snow Depth

Station Depth Elevation

Earthquake Activity

City Distance Mag. Time & Date
Minimum magnitude displayed is 2.5.

Coastal Water Temperatures

Place Temperature

Stations

Nearby Weather Stations

Station Location Temp. Windchill Dew Point Humidity Wind Precip. Elev Updated Type
                   

Watches & Warnings

There are currently no watches in effect.